Time;durP1;ratioP1;P1;durP2;ratioP2;P2;SDS_P1;SDS_P2;PMS_P1;PMS_P2;Temp;Humidity;BMP_temperature;BMP_pressure;BME280_temperature;BME280_humidity;BME280_pressure;Samples;Min_cycle;Max_cycle;Signal;HPM_P1;HPM_P2
2022/06/17 00:00:56;;;;;;;2.42;2.15;;;19.60;88.60;;;;;;4949536;28;20034;-34
2022/06/17 00:03:23;;;;;;;2.88;2.38;;;19.60;88.80;;;;;;4948584;28;20441;-33
2022/06/17 00:05:49;;;;;;;3.20;2.00;;;19.60;88.80;;;;;;4949380;28;20031;-34
2022/06/17 00:08:20;;;;;;;4.20;2.30;;;19.60;88.70;;;;;;4949603;29;20386;-34
2022/06/17 00:10:46;;;;;;;5.45;2.42;;;19.60;88.60;;;;;;4948049;28;20670;-34
2022/06/17 00:13:14;;;;;;;2.33;2.13;;;19.50;88.40;;;;;;4949304;29;20127;-34
2022/06/17 00:15:40;;;;;;;3.90;2.03;;;19.50;88.40;;;;;;4948647;28;20039;-36
2022/06/17 00:18:05;;;;;;;2.70;2.10;;;19.50;88.50;;;;;;4947495;28;20034;-34
2022/06/17 00:20:34;;;;;;;2.58;2.17;;;19.50;88.60;;;;;;4948463;29;20027;-33
2022/06/17 00:23:00;;;;;;;2.47;2.15;;;19.50;88.90;;;;;;4948467;28;20042;-34
2022/06/17 00:25:27;;;;;;;3.53;2.40;;;19.50;88.80;;;;;;4947899;29;20069;-34
2022/06/17 00:27:54;;;;;;;3.50;2.22;;;19.50;88.90;;;;;;4949838;29;20085;-34
2022/06/17 00:30:24;;;;;;;3.92;2.60;;;19.50;88.90;;;;;;4948056;29;20062;-35
2022/06/17 00:32:58;;;;;;;2.40;2.20;;;19.50;89.10;;;;;;4948816;28;20035;-34
2022/06/17 00:35:28;;;;;;;3.83;2.70;;;19.50;89.10;;;;;;4948545;29;20027;-34
2022/06/17 00:37:53;;;;;;;2.60;2.38;;;19.40;89.10;;;;;;4948488;28;20066;-34
2022/06/17 00:40:22;;;;;;;3.08;2.30;;;19.40;89.20;;;;;;4948400;28;20047;-34
2022/06/17 00:42:48;;;;;;;3.00;2.33;;;19.40;89.40;;;;;;4948415;28;20038;-34
2022/06/17 00:45:31;;;;;;;3.17;2.22;;;19.50;89.60;;;;;;4947879;28;20047;-34
2022/06/17 00:48:27;;;;;;;2.78;2.40;;;19.40;89.60;;;;;;4940281;29;20034;-34
2022/06/17 00:50:59;;;;;;;4.28;2.63;;;19.40;89.70;;;;;;4948406;28;20434;-34
2022/06/17 00:53:26;;;;;;;;;;;19.50;90.10;;;;;;4948759;28;20126;-34
2022/06/17 00:56:19;;;;;;;4.40;2.47;;;19.50;89.60;;;;;;4947977;28;19922;-34
2022/06/17 00:59:00;;;;;;;3.08;2.50;;;19.50;89.90;;;;;;4946559;29;20058;-35
2022/06/17 01:01:27;;;;;;;2.40;2.20;;;19.50;89.90;;;;;;4947919;28;20027;-35
2022/06/17 01:03:57;;;;;;;3.00;2.50;;;19.50;89.70;;;;;;4948795;29;20042;-34
2022/06/17 01:06:38;;;;;;;4.03;2.30;;;19.50;89.50;;;;;;4947971;28;20082;-35
2022/06/17 01:12:03;;;;;;;3.28;2.22;;;19.50;89.20;;;;;;4948594;29;20098;-34
2022/06/17 01:14:29;;;;;;;2.85;2.50;;;19.50;89.10;;;;;;4946656;29;20078;-33
2022/06/17 01:16:57;;;;;;;3.35;2.67;;;19.60;89.10;;;;;;4947721;28;20553;-34
2022/06/17 01:19:27;;;;;;;3.22;2.60;;;19.60;89.20;;;;;;4947658;28;20039;-34
2022/06/17 01:22:24;;;;;;;4.55;2.90;;;19.50;89.10;;;;;;4947778;28;20019;-36
2022/06/17 01:25:11;;;;;;;7.28;2.88;;;19.50;89.20;;;;;;4948066;29;20039;-33
2022/06/17 01:27:52;;;;;;;3.28;2.70;;;19.50;89.20;;;;;;4942206;29;20047;-35
2022/06/17 01:30:25;;;;;;;3.67;2.50;;;19.50;89.30;;;;;;4947167;28;20035;-34
2022/06/17 01:33:00;;;;;;;3.38;2.42;;;19.50;89.30;;;;;;4948173;29;20410;-34
2022/06/17 01:35:30;;;;;;;3.10;2.80;;;19.50;89.40;;;;;;4946450;28;20045;-34
2022/06/17 01:37:57;;;;;;;3.95;2.60;;;19.50;89.40;;;;;;4947313;28;20447;-33
2022/06/17 01:40:28;;;;;;;3.45;2.90;;;19.50;89.40;;;;;;4946576;28;20027;-33
2022/06/17 01:42:54;;;;;;;3.50;2.75;;;19.60;89.40;;;;;;4948073;28;20047;-35
2022/06/17 01:45:20;;;;;;;3.90;3.10;;;19.50;89.40;;;;;;4947374;28;20619;-35
2022/06/17 01:47:46;;;;;;;3.75;2.80;;;19.50;89.50;;;;;;4946431;28;20039;-33
2022/06/17 01:50:16;;;;;;;3.25;2.95;;;19.50;89.60;;;;;;4947148;29;20019;-36
2022/06/17 01:52:54;;;;;;;3.85;2.90;;;19.50;89.70;;;;;;4947811;28;20031;-34
2022/06/17 01:55:53;;;;;;;3.30;2.78;;;19.50;89.90;;;;;;4946648;29;20032;-35
2022/06/17 01:58:36;;;;;;;4.20;3.30;;;19.40;90.00;;;;;;4947059;29;20027;-33
2022/06/17 02:01:04;;;;;;;3.75;3.00;;;19.40;90.10;;;;;;4948094;28;20035;-36
2022/06/17 02:03:36;;;;;;;4.05;3.22;;;19.30;90.20;;;;;;4946635;29;20027;-34
2022/06/17 02:06:09;;;;;;;4.82;3.30;;;19.30;90.40;;;;;;4947551;28;20027;-35
2022/06/17 02:08:35;;;;;;;3.83;2.95;;;19.30;90.40;;;;;;4945847;29;20051;-35
2022/06/17 02:11:03;;;;;;;4.25;3.05;;;19.20;90.40;;;;;;4947515;28;20083;-35
2022/06/17 02:13:32;;;;;;;3.85;3.10;;;19.20;90.40;;;;;;4946752;29;20050;-36
2022/06/17 02:16:04;;;;;;;3.63;2.90;;;19.20;90.40;;;;;;4947116;28;20051;-33
2022/06/17 02:18:30;;;;;;;4.32;3.47;;;19.20;90.50;;;;;;4946950;29;20359;-33
2022/06/17 02:21:00;;;;;;;4.03;3.05;;;19.20;90.60;;;;;;4947436;28;20031;-33
2022/06/17 02:23:27;;;;;;;4.78;3.60;;;19.10;90.70;;;;;;4945999;28;20027;-34
2022/06/17 02:25:55;;;;;;;3.70;3.28;;;19.10;90.80;;;;;;4947832;28;20027;-34
2022/06/17 02:28:23;;;;;;;4.28;3.75;;;19.10;90.80;;;;;;4947220;28;20023;-35
2022/06/17 02:30:50;;;;;;;3.72;3.35;;;19.10;90.80;;;;;;4946717;28;20046;-34
2022/06/17 02:33:17;;;;;;;6.57;3.40;;;19.10;90.80;;;;;;4948221;28;20028;-34
2022/06/17 02:35:50;;;;;;;4.22;3.47;;;19.10;90.80;;;;;;4947116;28;20055;-35
2022/06/17 02:38:19;;;;;;;3.63;3.20;;;19.10;90.70;;;;;;4946386;28;20023;-35
2022/06/17 02:40:48;;;;;;;4.50;3.65;;;19.10;90.70;;;;;;4948209;28;20031;-34
2022/06/17 02:43:20;;;;;;;6.85;3.90;;;19.10;90.70;;;;;;4951069;29;20019;-34
2022/06/17 02:45:52;;;;;;;5.55;3.60;;;19.10;90.70;;;;;;4950176;29;20038;-34
2022/06/17 02:48:31;;;;;;;5.40;3.90;;;19.10;90.70;;;;;;4950480;28;20023;-42
2022/06/17 02:50:59;;;;;;;3.60;3.30;;;19.10;90.70;;;;;;4949930;28;20149;-35
2022/06/17 02:53:34;;;;;;;4.78;3.85;;;19.10;90.80;;;;;;4950644;29;20027;-35
2022/06/17 02:56:05;;;;;;;5.43;3.85;;;19.10;90.80;;;;;;4950642;29;20078;-34
2022/06/17 02:59:06;;;;;;;4.68;3.80;;;19.00;90.90;;;;;;4949636;28;20063;-35
2022/06/17 03:01:35;;;;;;;4.82;3.88;;;19.00;91.00;;;;;;4949934;29;20034;-35
2022/06/17 03:04:05;;;;;;;4.38;3.95;;;19.00;91.00;;;;;;4951167;29;20023;-36
2022/06/17 03:06:35;;;;;;;4.65;3.47;;;19.00;91.00;;;;;;4948994;29;20035;-33
2022/06/17 03:09:16;;;;;;;4.35;3.70;;;18.90;91.10;;;;;;4950684;29;20473;-34
2022/06/17 03:11:43;;;;;;;5.30;4.30;;;18.90;91.10;;;;;;4949854;29;20035;-34
2022/06/17 03:14:12;;;;;;;4.97;3.95;;;18.80;91.50;;;;;;4950391;28;20256;-35
2022/06/17 03:16:39;;;;;;;5.57;4.50;;;18.80;91.40;;;;;;4949684;28;20422;-33
2022/06/17 03:19:05;;;;;;;5.10;4.03;;;18.70;91.50;;;;;;4949991;28;20545;-34
2022/06/17 03:21:30;;;;;;;4.47;4.03;;;18.70;91.70;;;;;;4949563;29;20035;-34
2022/06/17 03:24:24;;;;;;;5.43;4.93;;;18.70;91.80;;;;;;4950007;28;20391;-34
2022/06/17 03:26:57;;;;;;;4.90;4.32;;;18.60;91.90;;;;;;4949179;28;20110;-34
2022/06/17 03:29:26;;;;;;;5.25;4.55;;;18.60;92.00;;;;;;4930992;29;20032;-36
2022/06/17 03:32:06;;;;;;;4.40;4.00;;;18.60;92.10;;;;;;4944526;29;20509;-34
2022/06/17 03:34:36;;;;;;;6.15;4.32;;;18.50;92.10;;;;;;4948480;28;20039;-33
2022/06/17 03:37:15;;;;;;;6.22;4.97;;;18.50;92.20;;;;;;4950001;29;20463;-34
2022/06/17 03:39:46;;;;;;;7.13;4.90;;;18.50;92.20;;;;;;4949550;29;20214;-34
2022/06/17 03:42:22;;;;;;;6.27;4.77;;;18.50;92.20;;;;;;4949800;29;20041;-33
2022/06/17 03:45:00;;;;;;;8.50;5.18;;;18.50;92.20;;;;;;4950108;28;20034;-34
2022/06/17 03:48:00;;;;;;;4.32;3.92;;;18.50;92.20;;;;;;4948357;29;20038;-34
2022/06/17 03:50:35;;;;;;;5.07;4.45;;;18.50;92.30;;;;;;4929847;29;20037;-34
2022/06/17 03:53:03;;;;;;;5.57;4.50;;;18.60;92.20;;;;;;4947659;28;20038;-36
2022/06/17 03:55:29;;;;;;;4.82;4.32;;;18.60;92.20;;;;;;4948248;29;20499;-35
2022/06/17 03:57:58;;;;;;;4.82;4.03;;;18.60;92.20;;;;;;4949643;29;20050;-34
2022/06/17 04:00:31;;;;;;;4.72;4.32;;;18.70;92.30;;;;;;4949868;28;20065;-35
2022/06/17 04:02:59;;;;;;;5.07;4.28;;;18.70;92.20;;;;;;4948945;29;20475;-34
2022/06/17 04:05:26;;;;;;;6.70;4.07;;;18.80;92.20;;;;;;4949005;28;20047;-34
2022/06/17 04:07:51;;;;;;;4.20;3.80;;;18.90;92.10;;;;;;4950295;28;20048;-34
2022/06/17 04:10:23;;;;;;;4.50;4.10;;;18.90;92.10;;;;;;4949120;28;20510;-35
2022/06/17 04:12:52;;;;;;;4.00;3.60;;;19.00;92.10;;;;;;4949900;28;20027;-34
2022/06/17 04:15:20;;;;;;;4.60;4.00;;;19.10;92.10;;;;;;4948357;28;20122;-34
2022/06/17 04:17:51;;;;;;;4.25;3.85;;;19.10;92.00;;;;;;4948442;29;20501;-34
2022/06/17 04:20:37;;;;;;;4.40;4.00;;;19.10;92.00;;;;;;4949260;28;20448;-34
2022/06/17 04:23:12;;;;;;;5.10;4.60;;;19.10;92.00;;;;;;4948820;29;20031;-34
2022/06/17 04:26:03;;;;;;;4.80;4.10;;;19.10;92.00;;;;;;4948671;28;20039;-34
2022/06/17 04:28:36;;;;;;;4.72;4.30;;;19.20;92.10;;;;;;4948387;29;20027;-34
2022/06/17 04:31:06;;;;;;;4.00;3.70;;;19.20;92.00;;;;;;4948621;28;20130;-34
2022/06/17 04:33:40;;;;;;;4.13;3.70;;;19.20;92.00;;;;;;4948226;28;20109;-34
2022/06/17 04:36:14;;;;;;;4.25;3.70;;;19.30;92.00;;;;;;4948620;28;20034;-36
2022/06/17 04:38:50;;;;;;;6.03;4.07;;;19.30;92.00;;;;;;4948660;29;20547;-35
2022/06/17 04:41:19;;;;;;;4.60;4.20;;;19.30;92.00;;;;;;4948429;28;20023;-35
2022/06/17 04:43:47;;;;;;;7.47;4.35;;;19.30;92.00;;;;;;4948006;28;20536;-34
2022/06/17 04:46:28;;;;;;;5.53;4.25;;;19.30;92.00;;;;;;4948510;28;20074;-33
2022/06/17 04:48:57;;;;;;;4.60;4.07;;;19.40;92.10;;;;;;4948776;29;20062;-35
2022/06/17 04:51:24;;;;;;;5.10;4.03;;;19.40;92.10;;;;;;4947488;28;20067;-35
2022/06/17 04:53:51;;;;;;;4.32;3.92;;;19.40;92.10;;;;;;4948141;28;20439;-33
2022/06/17 04:56:30;;;;;;;3.90;3.47;;;19.40;92.10;;;;;;4948322;28;20597;-34
2022/06/17 04:58:56;;;;;;;5.70;4.43;;;19.40;92.10;;;;;;4947643;28;20027;-34
2022/06/17 05:01:24;;;;;;;5.30;4.10;;;19.50;92.00;;;;;;4948205;28;20038;-34
2022/06/17 05:03:52;;;;;;;6.35;4.00;;;19.50;92.00;;;;;;4947812;28;20027;-35
2022/06/17 05:06:17;;;;;;;6.00;4.32;;;19.50;92.00;;;;;;4947175;28;20479;-34
2022/06/17 05:08:52;;;;;;;5.75;4.30;;;19.50;92.00;;;;;;4947807;29;20065;-35
2022/06/17 05:11:23;;;;;;;4.80;4.18;;;19.50;92.00;;;;;;4947613;28;20094;-34
2022/06/17 05:13:52;;;;;;;6.82;4.20;;;19.50;92.00;;;;;;4947985;29;20466;-35
2022/06/17 05:16:17;;;;;;;4.72;3.70;;;19.50;92.00;;;;;;4947921;29;20050;-34
2022/06/17 05:18:43;;;;;;;5.38;3.38;;;19.60;92.00;;;;;;4947326;29;20475;-35
2022/06/17 05:21:20;;;;;;;4.28;3.72;;;19.60;92.00;;;;;;4948559;29;20082;-35
2022/06/17 05:23:48;;;;;;;4.18;3.53;;;19.70;91.90;;;;;;4948321;28;20037;-35
2022/06/17 05:26:13;;;;;;;3.92;3.53;;;19.80;91.90;;;;;;4946935;29;20035;-34
2022/06/17 05:28:39;;;;;;;5.90;3.75;;;19.80;91.80;;;;;;4948171;29;20023;-35
2022/06/17 05:31:04;;;;;;;3.53;3.22;;;19.90;91.80;;;;;;4947366;29;20058;-35
2022/06/17 05:33:30;;;;;;;5.43;3.97;;;19.90;91.70;;;;;;4946728;29;20023;-34
2022/06/17 05:35:55;;;;;;;3.88;3.38;;;19.90;91.70;;;;;;4948399;29;20279;-34
2022/06/17 05:38:21;;;;;;;4.78;3.63;;;19.90;91.70;;;;;;4948279;29;20380;-34
2022/06/17 05:40:46;;;;;;;4.30;3.22;;;19.80;91.80;;;;;;4946453;28;20498;-34
2022/06/17 05:43:12;;;;;;;3.63;3.33;;;19.80;91.90;;;;;;4947740;29;20035;-34
2022/06/17 05:45:39;;;;;;;4.10;3.60;;;19.80;92.00;;;;;;4944689;28;20034;-33
2022/06/17 05:48:05;;;;;;;4.03;3.08;;;19.80;92.00;;;;;;4946926;28;20035;-35
2022/06/17 05:50:31;;;;;;;4.43;3.05;;;19.90;92.00;;;;;;4947174;29;20580;-34
2022/06/17 05:53:03;;;;;;;4.25;3.40;;;20.00;91.90;;;;;;4945044;28;20360;-37
2022/06/17 05:55:31;;;;;;;3.05;2.75;;;20.20;91.80;;;;;;4944584;28;20118;-35
2022/06/17 05:57:57;;;;;;;3.25;2.85;;;20.30;91.60;;;;;;4946603;29;20478;-36
2022/06/17 06:00:23;;;;;;;3.20;2.78;;;20.40;91.50;;;;;;4946281;28;20202;-35
2022/06/17 06:02:50;;;;;;;3.40;3.08;;;20.50;91.50;;;;;;4951744;28;20038;-36
2022/06/17 06:05:20;;;;;;;3.00;2.80;;;20.70;91.40;;;;;;4956210;28;20027;-33
2022/06/17 06:07:47;;;;;;;2.50;2.30;;;20.70;91.30;;;;;;4945239;29;20113;-34
2022/06/17 06:10:13;;;;;;;3.28;2.88;;;20.80;91.30;;;;;;4946679;29;20471;-34
2022/06/17 06:12:57;;;;;;;3.90;2.70;;;20.90;91.20;;;;;;4945650;28;20046;-37
2022/06/17 06:15:39;;;;;;;4.25;2.42;;;21.00;91.10;;;;;;4945844;28;20019;-35
2022/06/17 06:18:06;;;;;;;;;;;21.10;91.10;;;;;;4950557;29;20041;-35
2022/06/17 06:20:31;;;;;;;2.55;2.35;;;21.20;90.90;;;;;;4950827;28;20006;-35
2022/06/17 06:22:57;;;;;;;3.75;2.25;;;21.30;90.80;;;;;;4950483;29;20117;-35
2022/06/17 06:25:23;;;;;;;4.00;2.08;;;21.40;90.70;;;;;;4951635;29;20485;-36
2022/06/17 06:27:50;;;;;;;3.70;1.92;;;21.50;90.60;;;;;;4951343;28;20471;-34
2022/06/17 06:30:22;;;;;;;2.35;2.15;;;21.60;90.60;;;;;;4950029;29;20895;-35
2022/06/17 06:32:50;;;;;;;3.22;2.50;;;21.60;90.60;;;;;;4951180;28;20414;-34
2022/06/17 06:35:17;;;;;;;3.03;2.22;;;21.60;90.60;;;;;;4959943;28;20033;-36
2022/06/17 06:37:43;;;;;;;2.67;2.30;;;21.60;90.60;;;;;;4958666;28;20462;-36
2022/06/17 06:40:09;;;;;;;2.63;2.10;;;21.70;90.50;;;;;;4951178;29;20454;-35
2022/06/17 06:42:35;;;;;;;2.55;2.20;;;21.70;90.50;;;;;;4949704;29;20382;-35
2022/06/17 06:45:01;;;;;;;3.95;2.30;;;21.70;90.50;;;;;;4950386;28;20031;-35
2022/06/17 06:47:27;;;;;;;2.25;1.92;;;21.80;90.50;;;;;;4950423;28;20035;-34
2022/06/17 06:49:52;;;;;;;2.03;1.90;;;21.90;90.40;;;;;;4949680;29;20237;-35
2022/06/17 06:52:18;;;;;;;4.18;2.10;;;22.00;90.10;;;;;;4950661;29;20114;-35
2022/06/17 06:54:43;;;;;;;2.88;2.10;;;22.10;89.80;;;;;;4949866;29;20520;-35
2022/06/17 06:57:10;;;;;;;2.78;1.80;;;22.20;89.50;;;;;;4949442;28;20058;-36
2022/06/17 06:59:36;;;;;;;4.00;1.90;;;22.30;89.40;;;;;;4949901;28;20128;-34
2022/06/17 07:02:02;;;;;;;2.35;1.77;;;22.30;89.10;;;;;;4950753;29;20422;-35
2022/06/17 07:04:27;;;;;;;3.42;2.17;;;22.30;89.00;;;;;;4948591;28;20015;-35
2022/06/17 07:06:53;;;;;;;2.17;1.58;;;22.40;88.70;;;;;;4950084;29;20090;-35
2022/06/17 07:09:20;;;;;;;1.67;1.45;;;22.50;88.80;;;;;;4950185;29;20047;-35
2022/06/17 07:11:46;;;;;;;2.15;1.80;;;22.50;88.50;;;;;;4949386;28;20047;-35
2022/06/17 07:14:11;;;;;;;2.03;1.40;;;22.60;88.40;;;;;;4950352;28;20395;-36
2022/06/17 07:16:37;;;;;;;1.73;1.50;;;22.70;88.20;;;;;;4950140;29;20384;-35
2022/06/17 07:19:07;;;;;;;3.45;1.90;;;22.70;88.00;;;;;;4949252;28;20059;-34
2022/06/17 07:21:33;;;;;;;3.20;1.73;;;22.80;88.00;;;;;;4949738;28;20413;-35
2022/06/17 07:23:59;;;;;;;1.67;1.52;;;22.80;88.10;;;;;;4950229;29;20098;-34
2022/06/17 07:26:25;;;;;;;2.03;1.67;;;22.80;88.30;;;;;;4948276;28;20475;-35
2022/06/17 07:28:52;;;;;;;1.70;1.60;;;22.80;88.40;;;;;;4950093;28;20023;-35
2022/06/17 07:31:18;;;;;;;2.33;1.70;;;22.80;88.30;;;;;;4949249;28;20063;-35
2022/06/17 07:33:44;;;;;;;1.85;1.70;;;22.80;88.10;;;;;;4961487;28;20070;-35
2022/06/17 07:39:53;;;;;;;4.90;1.88;;;22.70;88.00;;;;;;4948900;29;20023;-35
2022/06/17 07:41:50;;;;;;;2.53;1.58;;;22.60;87.50;;;;;;4949821;28;20125;-33
2022/06/17 07:44:17;;;;;;;2.30;1.42;;;22.60;87.30;;;;;;4948502;28;20495;-34
2022/06/17 07:46:43;;;;;;;2.97;1.70;;;22.60;87.50;;;;;;4948446;28;20041;-36
2022/06/17 07:49:10;;;;;;;1.70;1.60;;;22.50;87.20;;;;;;4962642;28;20030;-34
2022/06/17 07:51:35;;;;;;;2.13;1.92;;;22.60;87.00;;;;;;4948803;29;20043;-34
2022/06/17 07:54:01;;;;;;;2.88;1.60;;;22.60;86.80;;;;;;4949279;29;20039;-35
2022/06/17 07:56:26;;;;;;;2.03;1.90;;;22.60;86.70;;;;;;4962894;28;20487;-35
2022/06/17 07:58:52;;;;;;;3.70;1.95;;;22.70;86.60;;;;;;4968453;28;20493;-34
2022/06/17 08:01:18;;;;;;;2.17;1.75;;;22.70;86.40;;;;;;4950663;28;20055;-35
2022/06/17 08:03:44;;;;;;;1.92;1.60;;;22.70;86.40;;;;;;4949520;29;20110;-33
2022/06/17 08:06:13;;;;;;;2.65;1.80;;;22.70;86.00;;;;;;4949391;29;20505;-34
2022/06/17 08:08:39;;;;;;;3.15;1.60;;;22.80;85.70;;;;;;4948077;28;20085;-34
2022/06/17 08:11:05;;;;;;;3.22;2.08;;;22.80;85.60;;;;;;4949070;28;20039;-35
2022/06/17 08:13:31;;;;;;;1.70;1.40;;;22.80;85.00;;;;;;4948543;28;20042;-36
2022/06/17 08:16:00;;;;;;;2.38;1.40;;;22.90;85.20;;;;;;4948708;28;20191;-35
2022/06/17 08:18:26;;;;;;;4.25;1.88;;;22.90;84.80;;;;;;4946732;28;20081;-35
2022/06/17 08:20:52;;;;;;;2.75;1.85;;;23.00;84.50;;;;;;4948849;28;20023;-34
2022/06/17 08:23:19;;;;;;;1.70;1.45;;;23.00;84.50;;;;;;4948736;29;20019;-34
2022/06/17 08:25:44;;;;;;;1.88;1.42;;;23.10;84.50;;;;;;4948636;28;20471;-35
2022/06/17 08:28:11;;;;;;;2.60;1.63;;;23.20;84.10;;;;;;4948061;29;20031;-35
2022/06/17 08:30:41;;;;;;;1.67;1.45;;;23.30;83.60;;;;;;4948922;28;20067;-35
2022/06/17 08:33:07;;;;;;;1.88;1.50;;;23.30;83.60;;;;;;4948701;28;20065;-34
2022/06/17 08:35:36;;;;;;;6.07;2.05;;;23.30;83.60;;;;;;4947693;29;20211;-33
2022/06/17 08:38:09;;;;;;;1.98;1.60;;;23.40;82.50;;;;;;4948588;28;20117;-35
2022/06/17 08:40:50;;;;;;;3.08;1.80;;;23.40;82.20;;;;;;4948070;28;20382;-34
2022/06/17 08:43:37;;;;;;;2.30;1.75;;;23.40;81.40;;;;;;4944994;29;20027;-35
2022/06/17 08:46:30;;;;;;;3.63;1.58;;;23.50;81.40;;;;;;4948467;29;20379;-35
2022/06/17 08:49:23;;;;;;;1.98;1.75;;;23.60;81.20;;;;;;4946230;29;20023;-36
2022/06/17 08:51:55;;;;;;;2.47;1.63;;;23.70;81.10;;;;;;4948705;28;20499;-35
2022/06/17 08:54:48;;;;;;;2.03;1.70;;;23.80;80.90;;;;;;4948247;29;20106;-34
2022/06/17 08:57:31;;;;;;;3.30;2.13;;;23.80;80.50;;;;;;4946957;29;20522;-34
2022/06/17 09:00:08;;;;;;;2.85;1.77;;;23.80;79.70;;;;;;4948686;29;20486;-35
2022/06/17 09:02:49;;;;;;;2.08;1.48;;;23.90;79.30;;;;;;4947624;28;20023;-35
2022/06/17 09:05:22;;;;;;;2.50;1.60;;;23.90;79.60;;;;;;4947522;29;20090;-34
2022/06/17 09:08:23;;;;;;;1.73;1.50;;;23.90;79.50;;;;;;4948073;28;20111;-35
2022/06/17 09:11:13;;;;;;;2.08;1.55;;;24.00;79.40;;;;;;4928714;29;20483;-35
2022/06/17 09:13:54;;;;;;;2.85;1.80;;;24.00;79.50;;;;;;4945600;29;20058;-35
2022/06/17 09:16:44;;;;;;;2.25;1.80;;;24.10;79.30;;;;;;4948225;29;20034;-35
2022/06/17 09:19:14;;;;;;;3.47;2.30;;;24.10;78.80;;;;;;4947154;29;20031;-35
2022/06/17 09:21:54;;;;;;;2.40;1.70;;;24.20;78.00;;;;;;4947920;28;20399;-35
2022/06/17 09:24:31;;;;;;;2.95;1.83;;;24.20;78.20;;;;;;4948313;28;20138;-35
2022/06/17 09:27:08;;;;;;;1.90;1.60;;;24.30;77.90;;;;;;4948502;29;20058;-36
2022/06/17 09:29:45;;;;;;;2.72;1.52;;;24.30;77.80;;;;;;4946216;29;20077;-35
2022/06/17 09:32:25;;;;;;;2.08;1.67;;;24.40;77.70;;;;;;4947368;28;20125;-34
2022/06/17 09:35:04;;;;;;;2.95;2.00;;;24.40;77.30;;;;;;4947805;28;20465;-34
2022/06/17 09:37:36;;;;;;;3.13;1.95;;;24.40;77.40;;;;;;4947279;28;20483;-34
2022/06/17 09:40:08;;;;;;;2.83;2.15;;;24.50;77.00;;;;;;4946876;29;20055;-34
2022/06/17 09:42:40;;;;;;;3.83;2.60;;;24.50;76.60;;;;;;4949977;28;20026;-35
2022/06/17 09:45:09;;;;;;;;;;;24.60;76.70;;;;;;4956695;28;20054;-35
2022/06/17 09:47:40;;;;;;;4.78;2.28;;;24.60;75.90;;;;;;4955955;28;19914;-35
2022/06/17 09:50:32;;;;;;;4.50;3.05;;;24.60;76.20;;;;;;4955869;28;20035;-34
2022/06/17 09:53:17;;;;;;;3.17;2.00;;;24.70;74.70;;;;;;4956104;28;20046;-35
2022/06/17 09:55:50;;;;;;;5.78;2.70;;;24.70;75.40;;;;;;4947683;29;20089;-35
2022/06/17 09:58:28;;;;;;;2.13;1.92;;;24.80;75.20;;;;;;4947448;28;20066;-36
2022/06/17 10:00:56;;;;;;;6.53;2.28;;;24.90;75.50;;;;;;4945152;29;20035;-35
2022/06/17 10:03:35;;;;;;;3.15;1.70;;;24.90;75.10;;;;;;4947685;29;20445;-35
2022/06/17 10:06:10;;;;;;;3.20;1.80;;;25.00;75.40;;;;;;4945324;29;20054;-34
2022/06/17 10:08:54;;;;;;;2.67;1.90;;;25.00;75.50;;;;;;4944193;28;20507;-34
2022/06/17 10:11:25;;;;;;;4.78;2.38;;;25.00;75.90;;;;;;4945673;29;20035;-35
2022/06/17 10:14:23;;;;;;;2.92;1.65;;;25.10;74.50;;;;;;4946941;29;20031;-35
2022/06/17 10:20:34;;;;;;;5.00;2.47;;;25.10;73.50;;;;;;4937939;29;20071;-34
2022/06/17 10:23:10;;;;;;;2.77;2.07;;;25.20;73.40;;;;;;4946368;29;20622;-35
2022/06/17 10:25:48;;;;;;;2.10;1.52;;;25.20;73.40;;;;;;4951644;28;20297;-34
2022/06/17 10:28:40;;;;;;;2.15;1.50;;;25.30;73.50;;;;;;4947608;28;20039;-35
2022/06/17 10:31:37;;;;;;;2.40;1.85;;;25.30;73.50;;;;;;4946356;29;20070;-35
2022/06/17 10:34:14;;;;;;;1.48;1.38;;;25.30;73.60;;;;;;4940769;29;20043;-35
2022/06/17 10:36:41;;;;;;;2.28;1.40;;;25.40;74.00;;;;;;4945589;29;20039;-34
2022/06/17 10:39:10;;;;;;;2.17;1.40;;;25.50;74.00;;;;;;4947486;28;20032;-34
2022/06/17 10:41:37;;;;;;;3.67;1.80;;;25.50;74.10;;;;;;4945769;28;20412;-36
2022/06/17 10:44:03;;;;;;;2.63;1.60;;;25.60;73.90;;;;;;4946731;28;20042;-36
2022/06/17 10:46:32;;;;;;;1.92;1.80;;;25.70;74.10;;;;;;4946193;28;20035;-36
2022/06/17 10:49:12;;;;;;;2.60;1.90;;;25.70;73.00;;;;;;4946614;28;20557;-35
2022/06/17 10:51:39;;;;;;;2.67;1.98;;;25.70;73.10;;;;;;4946509;28;20074;-34
2022/06/17 10:54:17;;;;;;;4.82;1.85;;;25.80;72.20;;;;;;4946565;28;20066;-35
2022/06/17 10:57:07;;;;;;;2.15;1.73;;;25.90;72.10;;;;;;4946546;29;20059;-35
2022/06/17 10:59:41;;;;;;;1.92;1.60;;;25.90;71.80;;;;;;4950734;28;20071;-34
2022/06/17 11:02:23;;;;;;;1.75;1.60;;;26.00;71.80;;;;;;4952337;28;20049;-34
2022/06/17 11:04:55;;;;;;;1.77;1.20;;;26.00;71.90;;;;;;4958121;28;20077;-34
2022/06/17 11:07:35;;;;;;;2.10;1.60;;;26.00;71.50;;;;;;4957818;28;20015;-35
2022/06/17 11:10:20;;;;;;;2.70;1.60;;;26.00;71.20;;;;;;4962720;28;20391;-36
2022/06/17 11:12:59;;;;;;;2.20;1.40;;;26.00;71.30;;;;;;4955291;28;20580;-35
2022/06/17 11:15:32;;;;;;;2.47;1.60;;;26.10;71.00;;;;;;4950261;29;20023;-35
2022/06/17 11:18:04;;;;;;;3.38;2.05;;;26.10;70.10;;;;;;4949269;28;20089;-35
2022/06/17 11:20:32;;;;;;;2.80;2.10;;;26.20;69.30;;;;;;4949442;29;20015;-36
2022/06/17 11:23:20;;;;;;;6.70;2.90;;;26.30;69.10;;;;;;4949968;28;20034;-36
2022/06/17 11:25:46;;;;;;;4.72;1.90;;;26.40;69.10;;;;;;4950029;28;20028;-35
2022/06/17 11:28:18;;;;;;;2.60;2.10;;;26.40;69.30;;;;;;4957544;28;20062;-35
2022/06/17 11:31:05;;;;;;;2.92;1.85;;;26.50;69.80;;;;;;4955402;28;20494;-34
2022/06/17 11:33:54;;;;;;;2.67;2.10;;;26.50;70.20;;;;;;4949403;28;20031;-34
2022/06/17 11:36:29;;;;;;;2.90;2.30;;;26.50;70.20;;;;;;4949919;28;20080;-35
2022/06/17 11:38:57;;;;;;;2.60;1.60;;;26.60;69.50;;;;;;4949124;29;20024;-35
2022/06/17 11:41:27;;;;;;;2.05;1.60;;;26.60;69.40;;;;;;4949560;28;20034;-36
2022/06/17 11:43:56;;;;;;;4.00;1.80;;;26.70;69.20;;;;;;4949481;28;20462;-34
2022/06/17 11:46:32;;;;;;;1.98;1.40;;;26.70;69.00;;;;;;4949468;28;20050;-35
2022/06/17 11:49:06;;;;;;;1.77;1.40;;;26.80;69.30;;;;;;4954050;28;20023;-36
2022/06/17 11:51:41;;;;;;;3.05;1.88;;;26.80;69.60;;;;;;4957750;28;20038;-36
2022/06/17 11:54:17;;;;;;;1.88;1.77;;;26.80;69.60;;;;;;4952962;28;20026;-35
2022/06/17 11:56:46;;;;;;;3.13;1.70;;;26.90;69.40;;;;;;4956313;28;20055;-33
2022/06/17 11:59:23;;;;;;;4.00;1.75;;;27.00;69.30;;;;;;4956260;28;20031;-36
2022/06/17 12:02:09;;;;;;;4.18;2.08;;;27.10;69.30;;;;;;4958060;28;20549;-35
2022/06/17 12:04:47;;;;;;;2.00;1.70;;;27.10;68.10;;;;;;4954772;28;20027;-35
2022/06/17 12:07:31;;;;;;;3.78;2.30;;;27.20;68.20;;;;;;4964347;28;20037;-35
2022/06/17 12:10:23;;;;;;;2.75;1.75;;;27.30;67.70;;;;;;4949515;28;20058;-36
2022/06/17 12:12:50;;;;;;;;;;;27.30;67.60;;;;;;4949328;28;20399;-36
2022/06/17 12:15:20;;;;;;;1.48;1.38;;;27.30;67.80;;;;;;4948379;28;19906;-37
2022/06/17 12:17:46;;;;;;;2.28;1.90;;;27.40;68.30;;;;;;4949085;28;20078;-35
2022/06/17 12:20:30;;;;;;;2.00;1.80;;;27.30;68.10;;;;;;4951877;28;20037;-35
2022/06/17 12:23:07;;;;;;;3.53;1.48;;;27.30;68.40;;;;;;4966569;28;20031;-35
2022/06/17 12:25:43;;;;;;;2.13;1.67;;;27.40;68.50;;;;;;4948097;28;20038;-34
2022/06/17 12:28:27;;;;;;;2.53;2.03;;;27.40;68.50;;;;;;4948309;29;20376;-34
2022/06/17 12:31:05;;;;;;;3.83;2.53;;;27.50;68.40;;;;;;4938110;28;20031;-36
2022/06/17 12:33:54;;;;;;;3.13;2.10;;;27.60;68.10;;;;;;4948688;28;20035;-34
2022/06/17 12:36:33;;;;;;;2.53;1.90;;;27.60;67.80;;;;;;4947479;28;20031;-35
2022/06/17 12:39:33;;;;;;;2.05;1.83;;;27.70;67.70;;;;;;4949268;28;20038;-35
2022/06/17 12:42:29;;;;;;;4.85;2.35;;;27.80;67.80;;;;;;4943299;28;20034;-37
2022/06/17 12:45:18;;;;;;;1.88;1.75;;;27.80;67.00;;;;;;4951448;28;20039;-35
2022/06/17 12:48:34;;;;;;;3.30;2.20;;;27.90;66.90;;;;;;4920725;28;20161;-34
2022/06/17 12:54:14;;;;;;;2.25;1.75;;;28.10;66.80;;;;;;4949086;29;20414;-35
2022/06/17 12:56:54;;;;;;;2.55;1.80;;;28.20;66.20;;;;;;4944024;29;20047;-34
2022/06/17 12:59:40;;;;;;;6.43;3.53;;;28.20;65.70;;;;;;4948478;29;20034;-36
2022/06/17 13:02:12;;;;;;;3.25;2.58;;;28.30;64.30;;;;;;4947339;29;20076;-36
2022/06/17 13:04:59;;;;;;;4.28;2.38;;;28.20;64.30;;;;;;4947718;28;20039;-36
2022/06/17 13:07:49;;;;;;;2.55;2.35;;;28.30;64.70;;;;;;4937300;29;20423;-34
2022/06/17 13:10:40;;;;;;;2.53;1.70;;;28.30;64.90;;;;;;4947744;29;20035;-34
2022/06/17 13:13:24;;;;;;;2.95;1.40;;;28.40;65.30;;;;;;4947615;29;20411;-35
2022/06/17 13:15:53;;;;;;;2.03;1.33;;;28.50;65.70;;;;;;4948028;29;20079;-35
2022/06/17 13:18:50;;;;;;;2.00;1.30;;;28.60;65.90;;;;;;4947571;29;20050;-36
2022/06/17 13:21:38;;;;;;;1.40;1.30;;;28.60;66.30;;;;;;4928614;29;20046;-36
2022/06/17 13:24:13;;;;;;;1.50;1.40;;;28.60;66.20;;;;;;4947265;28;20082;-35
2022/06/17 13:26:56;;;;;;;2.38;2.15;;;28.60;66.10;;;;;;4953120;28;20015;-34
2022/06/17 13:29:42;;;;;;;2.53;1.77;;;28.70;65.70;;;;;;4947474;28;20027;-35
2022/06/17 13:32:20;;;;;;;1.70;1.45;;;28.80;65.80;;;;;;4946400;29;20039;-35